Sao Jose da Laje, Brazil
Current Conditions -  °F | °C
As of 9:00 PM on Wednesday 28 Jan 2015 (Local Time) from SBMO Reporting Station
Scattered Clouds Scattered Clouds  
Wind Chill: 75°   Ceiling: Unl
Heat Index: 75°   Visibility: 6mi
Dew Point: 72°   Wind: 3mph
Humidity: 89%   Direction: 100°E
Pressure: 29.97"   Gusts: NA
Location:  9.01°S, 36.06°W
Report Text: SBMO 290000Z 10003KT 9999 FEW020 SCT090 24/22 Q1015
Loading
Personal Weather Stations






























Interactive Weather Map New forecast layout! Learn more

10-Day Weather Forecast

Advertisements
Track Severe Weather on mobile